sensor_id;sensor_type;location;lat;lon;timestamp;pressure;altitude;pressure_sealevel;temperature;humidity
79138;BME280;68544;45.566;10.238;2023-03-21T00:01:35;100122.72;;;10.85;66.62
79138;BME280;68544;45.566;10.238;2023-03-21T00:04:02;100121.41;;;10.96;65.82
79138;BME280;68544;45.566;10.238;2023-03-21T00:06:27;100125.59;;;11.13;65.26
79138;BME280;68544;45.566;10.238;2023-03-21T00:08:52;100117.88;;;10.66;67.14
79138;BME280;68544;45.566;10.238;2023-03-21T00:11:18;100113.78;;;10.85;66.20
79138;BME280;68544;45.566;10.238;2023-03-21T00:13:43;100116.09;;;10.73;67.10
79138;BME280;68544;45.566;10.238;2023-03-21T00:16:12;100110.88;;;10.57;67.44
79138;BME280;68544;45.566;10.238;2023-03-21T00:18:46;100109.19;;;10.56;67.85
79138;BME280;68544;45.566;10.238;2023-03-21T00:21:15;100108.41;;;10.33;68.82
79138;BME280;68544;45.566;10.238;2023-03-21T00:23:41;100096.50;;;10.27;69.39
79138;BME280;68544;45.566;10.238;2023-03-21T00:26:07;100097.47;;;10.12;69.89
79138;BME280;68544;45.566;10.238;2023-03-21T00:28:40;100091.84;;;10.21;69.26
79138;BME280;68544;45.566;10.238;2023-03-21T00:31:06;100092.25;;;10.48;68.31
79138;BME280;68544;45.566;10.238;2023-03-21T00:33:33;100090.50;;;10.55;67.47
79138;BME280;68544;45.566;10.238;2023-03-21T00:35:59;100077.97;;;10.39;67.85
79138;BME280;68544;45.566;10.238;2023-03-21T00:38:27;100090.78;;;10.45;67.74
79138;BME280;68544;45.566;10.238;2023-03-21T00:40:53;100090.09;;;10.06;69.00
79138;BME280;68544;45.566;10.238;2023-03-21T00:43:19;100089.50;;;10.18;68.29
79138;BME280;68544;45.566;10.238;2023-03-21T00:45:48;100085.19;;;10.09;68.34
79138;BME280;68544;45.566;10.238;2023-03-21T00:48:14;100080.19;;;10.21;67.52
79138;BME280;68544;45.566;10.238;2023-03-21T00:50:40;100078.25;;;10.15;67.71
79138;BME280;68544;45.566;10.238;2023-03-21T00:53:06;100076.66;;;10.20;67.54
79138;BME280;68544;45.566;10.238;2023-03-21T00:55:31;100070.53;;;10.26;67.20
79138;BME280;68544;45.566;10.238;2023-03-21T00:57:57;100064.13;;;10.57;66.19
79138;BME280;68544;45.566;10.238;2023-03-21T01:00:22;100059.84;;;10.62;66.01
79138;BME280;68544;45.566;10.238;2023-03-21T01:02:48;100068.25;;;10.67;66.18
79138;BME280;68544;45.566;10.238;2023-03-21T01:05:28;100063.69;;;10.68;65.97
79138;BME280;68544;45.566;10.238;2023-03-21T01:08:15;100067.88;;;10.70;65.24
79138;BME280;68544;45.566;10.238;2023-03-21T01:10:42;100061.25;;;10.58;65.59
79138;BME280;68544;45.566;10.238;2023-03-21T01:13:09;100052.03;;;10.53;65.63
79138;BME280;68544;45.566;10.238;2023-03-21T01:15:37;100055.84;;;10.58;65.18
79138;BME280;68544;45.566;10.238;2023-03-21T01:18:06;100042.53;;;10.42;65.62
79138;BME280;68544;45.566;10.238;2023-03-21T01:20:31;100053.69;;;10.39;66.22
79138;BME280;68544;45.566;10.238;2023-03-21T01:22:57;100052.69;;;10.03;68.59
79138;BME280;68544;45.566;10.238;2023-03-21T01:25:22;100048.41;;;10.08;68.17
79138;BME280;68544;45.566;10.238;2023-03-21T01:27:48;100037.56;;;10.16;68.07
79138;BME280;68544;45.566;10.238;2023-03-21T01:30:13;100039.75;;;9.98;68.56
79138;BME280;68544;45.566;10.238;2023-03-21T01:32:39;100041.72;;;9.67;69.68
79138;BME280;68544;45.566;10.238;2023-03-21T01:35:04;100034.88;;;9.79;69.53
79138;BME280;68544;45.566;10.238;2023-03-21T01:37:30;100031.00;;;9.96;68.98
79138;BME280;68544;45.566;10.238;2023-03-21T01:39:56;100032.50;;;9.99;68.66
79138;BME280;68544;45.566;10.238;2023-03-21T01:42:22;100028.19;;;10.27;67.44
79138;BME280;68544;45.566;10.238;2023-03-21T01:44:52;100021.78;;;10.05;68.06
79138;BME280;68544;45.566;10.238;2023-03-21T01:47:18;100022.91;;;9.96;68.50
79138;BME280;68544;45.566;10.238;2023-03-21T01:49:46;100030.66;;;9.77;69.31
79138;BME280;68544;45.566;10.238;2023-03-21T01:52:17;100032.94;;;9.88;68.50
79138;BME280;68544;45.566;10.238;2023-03-21T01:54:45;100030.50;;;9.93;68.33
79138;BME280;68544;45.566;10.238;2023-03-21T01:57:19;100025.00;;;10.09;67.57
79138;BME280;68544;45.566;10.238;2023-03-21T01:59:48;100026.31;;;10.13;66.98
79138;BME280;68544;45.566;10.238;2023-03-21T02:02:21;100027.97;;;10.14;67.30
79138;BME280;68544;45.566;10.238;2023-03-21T02:04:49;100026.59;;;10.18;67.53
79138;BME280;68544;45.566;10.238;2023-03-21T02:07:31;100022.59;;;10.14;67.11
79138;BME280;68544;45.566;10.238;2023-03-21T02:10:02;100017.31;;;10.35;66.11
79138;BME280;68544;45.566;10.238;2023-03-21T02:12:29;100019.84;;;10.22;66.57
79138;BME280;68544;45.566;10.238;2023-03-21T02:14:56;100016.28;;;10.21;66.84
79138;BME280;68544;45.566;10.238;2023-03-21T02:17:25;100016.66;;;10.33;66.35
79138;BME280;68544;45.566;10.238;2023-03-21T02:28:28;99998.75;;;10.03;66.35
79138;BME280;68544;45.566;10.238;2023-03-21T02:36:58;99999.38;;;9.68;67.81
79138;BME280;68544;45.566;10.238;2023-03-21T02:45:26;99991.75;;;9.57;68.73
79138;BME280;68544;45.566;10.238;2023-03-21T02:47:58;99991.72;;;9.79;67.97
79138;BME280;68544;45.566;10.238;2023-03-21T02:50:36;99994.66;;;10.07;66.70
79138;BME280;68544;45.566;10.238;2023-03-21T02:53:06;99993.91;;;9.38;69.53
79138;BME280;68544;45.566;10.238;2023-03-21T02:55:33;99989.34;;;9.62;68.11
79138;BME280;68544;45.566;10.238;2023-03-21T02:58:01;99991.88;;;9.63;68.13
79138;BME280;68544;45.566;10.238;2023-03-21T03:00:29;99990.88;;;9.79;67.55
79138;BME280;68544;45.566;10.238;2023-03-21T03:02:56;99985.78;;;9.84;67.23
79138;BME280;68544;45.566;10.238;2023-03-21T03:05:24;99994.84;;;9.68;67.73
79138;BME280;68544;45.566;10.238;2023-03-21T03:10:27;99986.97;;;9.44;68.97
79138;BME280;68544;45.566;10.238;2023-03-21T03:20:58;99988.47;;;9.84;67.09
79138;BME280;68544;45.566;10.238;2023-03-21T03:23:39;99986.78;;;9.83;66.81
79138;BME280;68544;45.566;10.238;2023-03-21T03:26:38;99985.41;;;9.87;66.21
79138;BME280;68544;45.566;10.238;2023-03-21T03:29:10;99976.97;;;9.90;66.21
79138;BME280;68544;45.566;10.238;2023-03-21T03:31:40;99980.28;;;9.77;66.76
79138;BME280;68544;45.566;10.238;2023-03-21T03:34:14;99977.81;;;9.68;67.25
79138;BME280;68544;45.566;10.238;2023-03-21T03:36:43;99972.19;;;9.77;67.21
79138;BME280;68544;45.566;10.238;2023-03-21T03:39:12;99969.31;;;9.79;67.19
79138;BME280;68544;45.566;10.238;2023-03-21T03:41:45;99963.38;;;9.98;66.11
79138;BME280;68544;45.566;10.238;2023-03-21T03:44:12;99967.25;;;9.81;66.97
79138;BME280;68544;45.566;10.238;2023-03-21T03:47:00;99967.66;;;9.78;67.30
79138;BME280;68544;45.566;10.238;2023-03-21T03:49:31;99964.03;;;9.85;66.76
79138;BME280;68544;45.566;10.238;2023-03-21T03:52:53;99964.72;;;9.65;67.84
79138;BME280;68544;45.566;10.238;2023-03-21T03:54:52;99963.38;;;9.83;66.85
79138;BME280;68544;45.566;10.238;2023-03-21T03:57:18;99966.53;;;9.87;66.81
79138;BME280;68544;45.566;10.238;2023-03-21T03:59:45;99970.38;;;9.70;67.28
79138;BME280;68544;45.566;10.238;2023-03-21T04:02:11;99969.56;;;9.69;67.43
79138;BME280;68544;45.566;10.238;2023-03-21T04:04:37;99968.28;;;9.20;68.59
79138;BME280;68544;45.566;10.238;2023-03-21T04:07:03;99964.94;;;8.95;69.25
79138;BME280;68544;45.566;10.238;2023-03-21T04:09:29;99962.88;;;8.97;68.88
79138;BME280;68544;45.566;10.238;2023-03-21T04:11:55;99972.13;;;8.72;69.83
79138;BME280;68544;45.566;10.238;2023-03-21T04:14:21;99971.31;;;8.63;70.23
79138;BME280;68544;45.566;10.238;2023-03-21T04:16:47;99971.03;;;9.12;68.57
79138;BME280;68544;45.566;10.238;2023-03-21T04:19:13;99963.03;;;9.26;67.90
79138;BME280;68544;45.566;10.238;2023-03-21T04:21:40;99973.44;;;9.29;67.58
79138;BME280;68544;45.566;10.238;2023-03-21T04:24:05;99961.94;;;9.35;67.45
79138;BME280;68544;45.566;10.238;2023-03-21T04:26:32;99970.53;;;9.53;66.58
79138;BME280;68544;45.566;10.238;2023-03-21T04:28:59;99970.69;;;9.37;67.25
79138;BME280;68544;45.566;10.238;2023-03-21T04:31:29;99963.25;;;9.39;67.05
79138;BME280;68544;45.566;10.238;2023-03-21T04:34:04;99970.97;;;9.42;66.90
79138;BME280;68544;45.566;10.238;2023-03-21T04:36:35;99962.84;;;9.50;66.47
79138;BME280;68544;45.566;10.238;2023-03-21T04:39:08;99964.34;;;9.30;67.00
79138;BME280;68544;45.566;10.238;2023-03-21T04:41:41;99977.28;;;9.35;67.11
79138;BME280;68544;45.566;10.238;2023-03-21T04:44:08;99975.88;;;9.39;67.05
79138;BME280;68544;45.566;10.238;2023-03-21T04:46:34;99987.56;;;9.31;67.69
79138;BME280;68544;45.566;10.238;2023-03-21T04:49:03;99968.88;;;9.52;66.95
79138;BME280;68544;45.566;10.238;2023-03-21T04:51:29;99974.50;;;9.43;66.93
79138;BME280;68544;45.566;10.238;2023-03-21T04:53:55;99977.28;;;9.35;67.47
79138;BME280;68544;45.566;10.238;2023-03-21T04:56:27;99979.16;;;9.49;66.82
79138;BME280;68544;45.566;10.238;2023-03-21T04:58:59;99981.09;;;9.40;67.12
79138;BME280;68544;45.566;10.238;2023-03-21T05:01:25;99975.03;;;9.38;67.71
79138;BME280;68544;45.566;10.238;2023-03-21T05:03:56;99983.59;;;9.19;69.00
79138;BME280;68544;45.566;10.238;2023-03-21T05:06:22;99983.25;;;9.22;69.07
79138;BME280;68544;45.566;10.238;2023-03-21T05:08:47;99985.41;;;9.27;68.76
79138;BME280;68544;45.566;10.238;2023-03-21T05:11:13;99983.56;;;9.27;68.50
79138;BME280;68544;45.566;10.238;2023-03-21T05:13:38;99977.75;;;9.16;69.44
79138;BME280;68544;45.566;10.238;2023-03-21T05:16:04;99979.91;;;8.98;70.37
79138;BME280;68544;45.566;10.238;2023-03-21T05:18:29;99977.34;;;9.27;68.70
79138;BME280;68544;45.566;10.238;2023-03-21T05:20:59;99978.78;;;9.37;68.58
79138;BME280;68544;45.566;10.238;2023-03-21T05:23:24;99987.31;;;9.18;69.46
79138;BME280;68544;45.566;10.238;2023-03-21T05:25:50;99976.28;;;9.05;69.64
79138;BME280;68544;45.566;10.238;2023-03-21T05:28:16;99979.91;;;9.20;69.04
79138;BME280;68544;45.566;10.238;2023-03-21T05:30:42;99978.50;;;9.47;67.79
79138;BME280;68544;45.566;10.238;2023-03-21T05:33:08;99981.16;;;9.32;68.23
79138;BME280;68544;45.566;10.238;2023-03-21T05:35:33;99975.34;;;9.43;67.50
79138;BME280;68544;45.566;10.238;2023-03-21T05:37:58;99989.28;;;9.47;67.34
79138;BME280;68544;45.566;10.238;2023-03-21T05:40:24;99982.16;;;9.54;67.13
79138;BME280;68544;45.566;10.238;2023-03-21T05:42:49;99988.75;;;9.51;67.91
79138;BME280;68544;45.566;10.238;2023-03-21T05:45:15;99972.94;;;9.48;67.77
79138;BME280;68544;45.566;10.238;2023-03-21T05:47:40;99988.41;;;9.32;68.72
79138;BME280;68544;45.566;10.238;2023-03-21T05:50:06;99988.41;;;9.54;67.70
79138;BME280;68544;45.566;10.238;2023-03-21T05:52:32;99970.53;;;9.53;67.40
79138;BME280;68544;45.566;10.238;2023-03-21T05:54:57;99975.94;;;9.53;67.56
79138;BME280;68544;45.566;10.238;2023-03-21T05:57:24;99980.81;;;9.73;66.73
79138;BME280;68544;45.566;10.238;2023-03-21T05:59:52;99982.41;;;9.67;67.00
79138;BME280;68544;45.566;10.238;2023-03-21T06:02:17;99981.19;;;9.70;66.76
79138;BME280;68544;45.566;10.238;2023-03-21T06:04:43;99984.09;;;9.83;66.36
79138;BME280;68544;45.566;10.238;2023-03-21T06:07:08;99974.34;;;9.82;66.40
79138;BME280;68544;45.566;10.238;2023-03-21T06:09:33;99986.31;;;9.79;66.26
79138;BME280;68544;45.566;10.238;2023-03-21T06:11:59;99988.53;;;9.61;67.02
79138;BME280;68544;45.566;10.238;2023-03-21T06:14:25;99976.91;;;9.61;66.97
79138;BME280;68544;45.566;10.238;2023-03-21T06:16:50;99979.09;;;9.94;65.75
79138;BME280;68544;45.566;10.238;2023-03-21T06:19:18;99984.22;;;10.04;65.32
79138;BME280;68544;45.566;10.238;2023-03-21T06:21:45;99992.84;;;10.22;64.89
79138;BME280;68544;45.566;10.238;2023-03-21T06:24:10;99983.06;;;10.21;64.89
79138;BME280;68544;45.566;10.238;2023-03-21T06:26:36;99978.13;;;10.39;64.39
79138;BME280;68544;45.566;10.238;2023-03-21T06:29:02;99988.34;;;10.58;63.73
79138;BME280;68544;45.566;10.238;2023-03-21T06:31:28;99990.34;;;10.85;62.87
79138;BME280;68544;45.566;10.238;2023-03-21T06:33:53;99979.31;;;10.80;63.33
79138;BME280;68544;45.566;10.238;2023-03-21T06:36:19;99994.25;;;10.97;62.67
79138;BME280;68544;45.566;10.238;2023-03-21T06:38:44;99992.66;;;11.03;62.30
79138;BME280;68544;45.566;10.238;2023-03-21T06:41:11;99994.25;;;10.97;62.83
79138;BME280;68544;45.566;10.238;2023-03-21T06:43:36;99993.47;;;11.39;61.37
79138;BME280;68544;45.566;10.238;2023-03-21T06:46:02;99994.41;;;11.32;61.29
79138;BME280;68544;45.566;10.238;2023-03-21T06:48:28;99994.41;;;11.53;61.00
79138;BME280;68544;45.566;10.238;2023-03-21T06:50:53;99997.66;;;11.84;59.76
79138;BME280;68544;45.566;10.238;2023-03-21T06:53:21;99992.69;;;11.45;61.17
79138;BME280;68544;45.566;10.238;2023-03-21T06:55:50;100006.50;;;11.36;62.23
79138;BME280;68544;45.566;10.238;2023-03-21T06:58:15;99992.34;;;11.55;61.42
79138;BME280;68544;45.566;10.238;2023-03-21T07:00:41;100005.44;;;12.21;59.09
79138;BME280;68544;45.566;10.238;2023-03-21T07:03:06;100000.50;;;12.31;59.00
79138;BME280;68544;45.566;10.238;2023-03-21T07:05:34;100010.34;;;12.39;58.47
79138;BME280;68544;45.566;10.238;2023-03-21T07:08:00;99997.44;;;12.82;57.00
79138;BME280;68544;45.566;10.238;2023-03-21T07:10:26;100005.41;;;12.90;56.10
79138;BME280;68544;45.566;10.238;2023-03-21T07:12:51;99997.84;;;13.26;54.78
79138;BME280;68544;45.566;10.238;2023-03-21T07:15:17;100000.59;;;13.39;54.33
79138;BME280;68544;45.566;10.238;2023-03-21T07:17:42;99998.13;;;13.64;53.63
79138;BME280;68544;45.566;10.238;2023-03-21T07:20:08;99988.53;;;13.94;52.73
79138;BME280;68544;45.566;10.238;2023-03-21T07:22:35;99992.47;;;14.44;51.14
79138;BME280;68544;45.566;10.238;2023-03-21T07:25:01;99991.63;;;14.43;50.74
79138;BME280;68544;45.566;10.238;2023-03-21T07:27:26;99997.28;;;15.12;48.67
79138;BME280;68544;45.566;10.238;2023-03-21T07:29:52;100002.50;;;15.07;48.66
79138;BME280;68544;45.566;10.238;2023-03-21T07:32:17;99998.59;;;15.34;48.02
79138;BME280;68544;45.566;10.238;2023-03-21T07:34:43;100005.50;;;15.74;46.65
79138;BME280;68544;45.566;10.238;2023-03-21T07:37:08;100001.69;;;15.44;47.89
79138;BME280;68544;45.566;10.238;2023-03-21T07:39:34;99990.03;;;15.68;47.33
79138;BME280;68544;45.566;10.238;2023-03-21T07:42:00;99995.56;;;15.55;47.78
79138;BME280;68544;45.566;10.238;2023-03-21T07:44:27;99990.56;;;16.08;45.82
79138;BME280;68544;45.566;10.238;2023-03-21T07:46:53;99989.00;;;16.37;45.13
79138;BME280;68544;45.566;10.238;2023-03-21T07:49:19;99994.72;;;16.53;44.26
79138;BME280;68544;45.566;10.238;2023-03-21T07:51:44;100002.28;;;16.76;43.50
79138;BME280;68544;45.566;10.238;2023-03-21T07:54:10;99997.69;;;16.52;43.87
79138;BME280;68544;45.566;10.238;2023-03-21T07:56:36;100001.34;;;16.82;43.29
79138;BME280;68544;45.566;10.238;2023-03-21T07:59:01;99993.91;;;16.89;43.00
79138;BME280;68544;45.566;10.238;2023-03-21T08:01:26;99998.06;;;17.39;41.61
79138;BME280;68544;45.566;10.238;2023-03-21T08:03:52;99998.84;;;17.88;40.54
79138;BME280;68544;45.566;10.238;2023-03-21T08:06:21;99993.13;;;17.78;40.25
79138;BME280;68544;45.566;10.238;2023-03-21T08:08:46;99989.34;;;17.90;40.13
79138;BME280;68544;45.566;10.238;2023-03-21T08:11:12;99995.09;;;18.12;39.26
79138;BME280;68544;45.566;10.238;2023-03-21T08:13:37;100000.09;;;18.61;38.66
79138;BME280;68544;45.566;10.238;2023-03-21T08:16:03;100002.69;;;18.79;37.83
79138;BME280;68544;45.566;10.238;2023-03-21T08:18:29;99998.16;;;18.97;37.13
79138;BME280;68544;45.566;10.238;2023-03-21T08:20:56;99990.53;;;19.27;36.50
79138;BME280;68544;45.566;10.238;2023-03-21T08:23:22;99977.44;;;19.85;35.62
79138;BME280;68544;45.566;10.238;2023-03-21T08:25:52;99977.16;;;19.87;35.55
79138;BME280;68544;45.566;10.238;2023-03-21T08:28:19;99987.22;;;20.48;34.70
79138;BME280;68544;45.566;10.238;2023-03-21T08:30:46;99985.16;;;20.55;34.86
79138;BME280;68544;45.566;10.238;2023-03-21T08:33:11;99982.91;;;21.11;33.47
79138;BME280;68544;45.566;10.238;2023-03-21T08:35:38;99987.34;;;20.96;34.10
79138;BME280;68544;45.566;10.238;2023-03-21T08:38:05;99985.13;;;21.14;33.95
79138;BME280;68544;45.566;10.238;2023-03-21T08:40:31;99988.38;;;21.33;34.63
79138;BME280;68544;45.566;10.238;2023-03-21T08:42:57;99975.66;;;22.07;32.59
79138;BME280;68544;45.566;10.238;2023-03-21T08:45:22;99983.75;;;21.87;33.54
79138;BME280;68544;45.566;10.238;2023-03-21T08:47:49;99978.25;;;22.24;32.73
79138;BME280;68544;45.566;10.238;2023-03-21T08:50:17;99978.41;;;22.44;31.84
79138;BME280;68544;45.566;10.238;2023-03-21T08:52:43;99980.78;;;23.24;30.46
79138;BME280;68544;45.566;10.238;2023-03-21T08:55:09;99972.88;;;24.68;27.88
79138;BME280;68544;45.566;10.238;2023-03-21T08:57:35;99972.25;;;28.26;21.36
79138;BME280;68544;45.566;10.238;2023-03-21T09:00:02;99963.63;;;30.65;17.80
79138;BME280;68544;45.566;10.238;2023-03-21T09:02:31;99954.94;;;30.67;17.62
79138;BME280;68544;45.566;10.238;2023-03-21T09:04:57;99964.81;;;32.03;16.12
79138;BME280;68544;45.566;10.238;2023-03-21T09:07:23;99957.53;;;32.91;14.46
79138;BME280;68544;45.566;10.238;2023-03-21T09:09:50;99949.34;;;33.73;13.43
79138;BME280;68544;45.566;10.238;2023-03-21T09:12:17;99957.78;;;33.85;13.51
79138;BME280;68544;45.566;10.238;2023-03-21T09:14:42;99952.13;;;35.04;12.35
79138;BME280;68544;45.566;10.238;2023-03-21T09:17:07;99945.13;;;33.38;14.61
79138;BME280;68544;45.566;10.238;2023-03-21T09:19:33;99953.59;;;32.37;15.34
79138;BME280;68544;45.566;10.238;2023-03-21T09:21:59;99955.56;;;31.42;16.80
79138;BME280;68544;45.566;10.238;2023-03-21T09:24:24;99962.50;;;28.74;21.30
79138;BME280;68544;45.566;10.238;2023-03-21T09:26:50;99957.44;;;28.30;22.20
79138;BME280;68544;45.566;10.238;2023-03-21T09:29:16;99949.66;;;27.02;23.60
79138;BME280;68544;45.566;10.238;2023-03-21T09:31:43;99960.19;;;27.23;23.47
79138;BME280;68544;45.566;10.238;2023-03-21T09:34:08;99950.63;;;25.67;26.08
79138;BME280;68544;45.566;10.238;2023-03-21T09:36:34;99963.22;;;26.22;25.33
79138;BME280;68544;45.566;10.238;2023-03-21T09:39:00;99960.63;;;26.59;24.62
79138;BME280;68544;45.566;10.238;2023-03-21T09:42:12;99950.28;;;26.13;25.37
79138;BME280;68544;45.566;10.238;2023-03-21T09:44:33;99956.81;;;29.83;20.06
79138;BME280;68544;45.566;10.238;2023-03-21T09:47:27;99946.09;;;32.66;15.74
79138;BME280;68544;45.566;10.238;2023-03-21T09:50:06;99942.53;;;33.95;14.28
79138;BME280;68544;45.566;10.238;2023-03-21T09:53:21;99947.69;;;33.22;14.92
79138;BME280;68544;45.566;10.238;2023-03-21T09:55:40;99946.38;;;36.01;12.23
79138;BME280;68544;45.566;10.238;2023-03-21T10:00:51;99942.59;;;35.57;12.58
79138;BME280;68544;45.566;10.238;2023-03-21T10:03:28;99945.22;;;34.45;13.40
79138;BME280;68544;45.566;10.238;2023-03-21T10:05:56;99946.00;;;35.62;12.08
79138;BME280;68544;45.566;10.238;2023-03-21T10:08:28;99937.94;;;34.44;13.72
79138;BME280;68544;45.566;10.238;2023-03-21T10:11:00;99935.81;;;37.00;11.36
79138;BME280;68544;45.566;10.238;2023-03-21T10:13:33;99934.06;;;37.27;11.12
79138;BME280;68544;45.566;10.238;2023-03-21T10:16:05;99932.94;;;38.01;10.07
79138;BME280;68544;45.566;10.238;2023-03-21T10:18:35;99931.66;;;37.44;10.35
79138;BME280;68544;45.566;10.238;2023-03-21T10:21:04;99943.28;;;36.92;11.27
79138;BME280;68544;45.566;10.238;2023-03-21T10:23:29;99936.84;;;37.77;10.18
79138;BME280;68544;45.566;10.238;2023-03-21T10:25:58;99947.38;;;36.95;11.12
79138;BME280;68544;45.566;10.238;2023-03-21T10:28:27;99930.72;;;39.19;9.33
79138;BME280;68544;45.566;10.238;2023-03-21T10:30:56;99931.31;;;40.17;8.81
79138;BME280;68544;45.566;10.238;2023-03-21T10:33:25;99926.47;;;38.38;10.27
79138;BME280;68544;45.566;10.238;2023-03-21T10:35:58;99928.81;;;37.25;11.12
79138;BME280;68544;45.566;10.238;2023-03-21T10:38:26;99932.53;;;37.13;10.90
79138;BME280;68544;45.566;10.238;2023-03-21T10:40:52;99929.72;;;37.64;10.45
79138;BME280;68544;45.566;10.238;2023-03-21T10:45:54;99921.84;;;37.73;10.50
79138;BME280;68544;45.566;10.238;2023-03-21T10:48:20;99925.69;;;38.22;10.30
79138;BME280;68544;45.566;10.238;2023-03-21T10:50:48;99932.94;;;39.89;9.08
79138;BME280;68544;45.566;10.238;2023-03-21T10:53:19;99927.91;;;38.51;9.67
79138;BME280;68544;45.566;10.238;2023-03-21T10:55:53;99927.88;;;39.16;8.72
79138;BME280;68544;45.566;10.238;2023-03-21T10:58:24;99929.16;;;38.31;9.73
79138;BME280;68544;45.566;10.238;2023-03-21T11:01:01;99935.50;;;38.47;9.74
79138;BME280;68544;45.566;10.238;2023-03-21T11:03:34;99928.34;;;39.47;8.87
79138;BME280;68544;45.566;10.238;2023-03-21T11:06:07;99928.16;;;38.65;9.41
79138;BME280;68544;45.566;10.238;2023-03-21T11:08:41;99925.97;;;39.01;9.83
79138;BME280;68544;45.566;10.238;2023-03-21T11:11:09;99925.03;;;38.48;9.88
79138;BME280;68544;45.566;10.238;2023-03-21T11:13:41;99912.84;;;39.38;9.22
79138;BME280;68544;45.566;10.238;2023-03-21T11:16:18;99914.31;;;40.51;8.29
79138;BME280;68544;45.566;10.238;2023-03-21T11:18:49;99919.59;;;38.81;9.58
79138;BME280;68544;45.566;10.238;2023-03-21T11:21:15;99917.84;;;38.31;9.44
79138;BME280;68544;45.566;10.238;2023-03-21T11:23:47;99921.34;;;36.86;10.93
79138;BME280;68544;45.566;10.238;2023-03-21T11:26:28;99911.31;;;37.70;10.52
79138;BME280;68544;45.566;10.238;2023-03-21T11:28:55;99899.94;;;38.43;9.29
79138;BME280;68544;45.566;10.238;2023-03-21T11:31:22;99909.34;;;38.28;9.49
79138;BME280;68544;45.566;10.238;2023-03-21T11:34:05;99906.50;;;38.96;8.75
79138;BME280;68544;45.566;10.238;2023-03-21T11:36:39;99900.78;;;39.15;8.89
79138;BME280;68544;45.566;10.238;2023-03-21T11:39:14;99905.84;;;38.15;9.45
79138;BME280;68544;45.566;10.238;2023-03-21T11:41:40;99899.88;;;36.93;10.70
79138;BME280;68544;45.566;10.238;2023-03-21T11:44:23;99889.69;;;39.03;9.04
79138;BME280;68544;45.566;10.238;2023-03-21T11:46:49;99892.72;;;37.15;10.94
79138;BME280;68544;45.566;10.238;2023-03-21T11:49:15;99883.97;;;37.36;10.65
79138;BME280;68544;45.566;10.238;2023-03-21T11:52:35;99885.22;;;38.11;9.34
79138;BME280;68544;45.566;10.238;2023-03-21T11:59:52;99875.50;;;37.01;10.92
79138;BME280;68544;45.566;10.238;2023-03-21T12:05:28;99864.19;;;37.51;10.05
79138;BME280;68544;45.566;10.238;2023-03-21T12:10:36;99864.91;;;36.63;10.18
79138;BME280;68544;45.566;10.238;2023-03-21T12:15:53;99855.25;;;37.46;10.19
79138;BME280;68544;45.566;10.238;2023-03-21T12:20:58;99850.97;;;31.74;15.08
79138;BME280;68544;45.566;10.238;2023-03-21T12:24:13;99851.25;;;29.15;18.84
79138;BME280;68544;45.566;10.238;2023-03-21T12:32:05;99840.19;;;27.36;20.93
79138;BME280;68544;45.566;10.238;2023-03-21T12:39:47;99831.91;;;25.76;23.77
79138;BME280;68544;45.566;10.238;2023-03-21T12:44:46;99828.75;;;24.61;25.71
79138;BME280;68544;45.566;10.238;2023-03-21T12:47:23;99819.03;;;25.23;24.96
79138;BME280;68544;45.566;10.238;2023-03-21T12:50:04;99820.47;;;24.66;24.86
79138;BME280;68544;45.566;10.238;2023-03-21T12:52:38;99806.28;;;24.24;25.53
79138;BME280;68544;45.566;10.238;2023-03-21T12:55:17;99805.97;;;24.30;25.21
79138;BME280;68544;45.566;10.238;2023-03-21T13:00:21;99789.50;;;24.69;24.99
79138;BME280;68544;45.566;10.238;2023-03-21T13:05:35;99791.81;;;24.52;24.99
79138;BME280;68544;45.566;10.238;2023-03-21T13:08:13;99783.44;;;24.77;24.66
79138;BME280;68544;45.566;10.238;2023-03-21T13:10:43;99780.84;;;24.37;24.46
79138;BME280;68544;45.566;10.238;2023-03-21T13:13:18;99777.72;;;23.49;25.25
79138;BME280;68544;45.566;10.238;2023-03-21T13:21:03;99751.81;;;23.50;25.12
79138;BME280;68544;45.566;10.238;2023-03-21T13:23:37;99762.28;;;23.48;26.23
79138;BME280;68544;45.566;10.238;2023-03-21T13:26:05;99748.53;;;23.38;25.44
79138;BME280;68544;45.566;10.238;2023-03-21T13:28:34;99757.59;;;23.19;26.05
79138;BME280;68544;45.566;10.238;2023-03-21T13:33:41;99754.41;;;22.45;27.44
79138;BME280;68544;45.566;10.238;2023-03-21T13:36:14;99752.22;;;22.57;27.35
79138;BME280;68544;45.566;10.238;2023-03-21T13:38:40;99746.50;;;22.63;27.13
79138;BME280;68544;45.566;10.238;2023-03-21T13:41:07;99742.84;;;22.43;27.21
79138;BME280;68544;45.566;10.238;2023-03-21T13:56:55;99727.38;;;22.22;27.07
79138;BME280;68544;45.566;10.238;2023-03-21T14:02:29;99728.56;;;22.51;26.92
79138;BME280;68544;45.566;10.238;2023-03-21T14:05:00;99716.41;;;22.27;27.54
79138;BME280;68544;45.566;10.238;2023-03-21T14:07:32;99706.34;;;21.90;27.79
79138;BME280;68544;45.566;10.238;2023-03-21T14:10:40;99702.63;;;22.17;27.49
79138;BME280;68544;45.566;10.238;2023-03-21T14:12:58;99713.00;;;21.99;27.96
79138;BME280;68544;45.566;10.238;2023-03-21T14:15:31;99705.81;;;21.98;27.49
79138;BME280;68544;45.566;10.238;2023-03-21T14:18:00;99704.47;;;22.01;27.12
79138;BME280;68544;45.566;10.238;2023-03-21T14:20:33;99705.28;;;21.96;26.72
79138;BME280;68544;45.566;10.238;2023-03-21T14:23:06;99706.56;;;21.79;27.41
79138;BME280;68544;45.566;10.238;2023-03-21T14:25:35;99700.06;;;21.95;27.11
79138;BME280;68544;45.566;10.238;2023-03-21T14:28:03;99698.94;;;21.91;27.46
79138;BME280;68544;45.566;10.238;2023-03-21T14:30:38;99698.75;;;22.18;26.94
79138;BME280;68544;45.566;10.238;2023-03-21T14:33:25;99691.00;;;22.05;27.29
79138;BME280;68544;45.566;10.238;2023-03-21T14:35:54;99682.59;;;22.41;27.53